createdAt,value
2019-06-07T00:01:08.431Z,15.80
2019-06-07T00:03:41.434Z,15.90
2019-06-07T00:06:23.878Z,15.80
2019-06-07T00:08:53.019Z,16.00
2019-06-07T00:11:27.638Z,16.00
2019-06-07T00:14:03.429Z,15.90
2019-06-07T00:16:37.259Z,16.10
2019-06-07T00:19:15.761Z,16.20
2019-06-07T00:22:15.703Z,16.30
2019-06-07T00:24:37.173Z,16.40
2019-06-07T00:27:11.312Z,16.30
2019-06-07T00:29:44.763Z,16.30
2019-06-07T00:32:22.043Z,16.30
2019-06-07T00:35:00.971Z,16.30
2019-06-07T00:37:40.045Z,16.30
2019-06-07T00:40:24.086Z,16.40
2019-06-07T00:42:50.718Z,16.30
2019-06-07T00:45:29.520Z,16.20
2019-06-07T00:48:04.504Z,16.30
2019-06-07T00:50:37.345Z,16.30
2019-06-07T00:53:15.495Z,16.10
2019-06-07T00:55:45.508Z,16.00
2019-06-07T00:58:21.836Z,16.00
2019-06-07T01:01:01.021Z,16.00
2019-06-07T01:03:53.500Z,16.00
2019-06-07T01:06:27.163Z,15.90
2019-06-07T01:09:00.126Z,15.80
2019-06-07T01:11:33.095Z,15.80
2019-06-07T01:14:10.813Z,15.80
2019-06-07T01:16:57.217Z,15.70
2019-06-07T01:19:27.856Z,15.80
2019-06-07T01:22:06.757Z,15.80
2019-06-07T01:24:48.235Z,15.80
2019-06-07T01:27:25.581Z,15.70
2019-06-07T01:30:06.779Z,15.60
2019-06-07T01:32:52.304Z,15.70
2019-06-07T01:35:26.746Z,15.70
2019-06-07T01:38:01.258Z,15.50
2019-06-07T01:40:35.997Z,15.50
2019-06-07T01:43:10.870Z,15.50
2019-06-07T01:45:43.738Z,15.60
2019-06-07T01:48:21.151Z,15.50
2019-06-07T01:50:52.383Z,15.60
2019-06-07T01:53:29.121Z,15.80
2019-06-07T01:56:06.858Z,15.90
2019-06-07T01:58:39.758Z,15.90
2019-06-07T02:01:19.182Z,15.80
2019-06-07T02:03:54.291Z,15.70
2019-06-07T02:06:32.400Z,15.70
2019-06-07T02:09:15.913Z,15.60
2019-06-07T02:11:51.659Z,15.60
2019-06-07T02:14:33.002Z,15.60
2019-06-07T02:17:04.605Z,15.60
2019-06-07T02:19:40.606Z,15.80
2019-06-07T02:22:16.663Z,15.70
2019-06-07T02:25:34.603Z,15.60
2019-06-07T02:27:32.621Z,15.70
2019-06-07T02:30:36.280Z,15.50
2019-06-07T02:32:45.787Z,15.40
2019-06-07T02:35:25.629Z,15.40
2019-06-07T02:38:02.341Z,15.30
2019-06-07T02:40:39.010Z,15.30
2019-06-07T02:43:12.998Z,15.30
2019-06-07T02:46:21.198Z,15.40
2019-06-07T02:48:40.080Z,15.10
2019-06-07T02:51:17.734Z,15.10
2019-06-07T02:54:02.412Z,15.00
2019-06-07T02:56:46.564Z,15.00
2019-06-07T02:59:11.632Z,15.00
2019-06-07T03:01:51.041Z,15.00
2019-06-07T03:04:27.184Z,15.00
2019-06-07T03:06:58.250Z,15.10
2019-06-07T03:09:35.005Z,15.10
2019-06-07T03:12:07.498Z,15.10
2019-06-07T03:14:42.259Z,15.10
2019-06-07T03:17:21.325Z,15.20
2019-06-07T03:19:55.754Z,15.10
2019-06-07T03:22:34.950Z,15.00
2019-06-07T03:25:07.423Z,15.00
2019-06-07T03:27:50.008Z,15.10
2019-06-07T03:30:38.746Z,15.20
2019-06-07T03:33:02.942Z,15.20
2019-06-07T03:35:40.382Z,15.30
2019-06-07T03:38:12.838Z,15.30
2019-06-07T03:40:49.614Z,15.30
2019-06-07T03:43:22.859Z,15.40
2019-06-07T03:45:55.904Z,15.40
2019-06-07T03:48:30.210Z,15.40
2019-06-07T03:51:05.013Z,15.30
2019-06-07T03:53:50.466Z,15.40
2019-06-07T03:56:25.580Z,15.40
2019-06-07T03:59:06.752Z,15.40
2019-06-07T04:01:41.777Z,15.30
2019-06-07T04:04:18.534Z,15.40
2019-06-07T04:06:52.378Z,15.50
2019-06-07T04:09:28.767Z,15.50
2019-06-07T04:12:03.075Z,15.60
2019-06-07T04:14:38.398Z,15.60
2019-06-07T04:17:12.849Z,15.70
2019-06-07T04:19:51.022Z,15.70
2019-06-07T04:22:23.765Z,15.70
2019-06-07T04:24:58.186Z,15.90
2019-06-07T04:27:37.709Z,15.90
2019-06-07T04:30:08.939Z,15.90
2019-06-07T04:32:44.909Z,15.70
2019-06-07T04:35:16.514Z,15.60
2019-06-07T04:37:49.233Z,15.60
2019-06-07T04:40:25.569Z,15.50
2019-06-07T04:42:58.365Z,15.60
2019-06-07T04:45:37.354Z,15.50
2019-06-07T04:48:05.654Z,15.50
2019-06-07T04:50:43.506Z,15.50
2019-06-07T04:53:12.775Z,15.40
2019-06-07T04:55:45.716Z,15.50
2019-06-07T04:58:19.870Z,15.60
2019-06-07T05:00:58.989Z,15.50
2019-06-07T05:03:31.362Z,15.50
2019-06-07T05:06:04.078Z,15.60
2019-06-07T05:08:38.769Z,15.70
2019-06-07T05:11:11.501Z,15.80
2019-06-07T05:13:44.355Z,15.80
2019-06-07T05:16:17.259Z,15.80
2019-06-07T05:18:52.579Z,15.90
2019-06-07T05:24:25.562Z,15.80
2019-06-07T05:27:00.294Z,15.90
2019-06-07T05:29:36.363Z,15.70
2019-06-07T05:32:07.678Z,15.80
2019-06-07T05:34:46.647Z,15.80
2019-06-07T05:37:15.473Z,15.90
2019-06-07T05:39:48.397Z,15.90
2019-06-07T05:42:21.151Z,16.00
2019-06-07T05:44:54.167Z,16.10
2019-06-07T05:47:27.118Z,16.10
2019-06-07T05:49:59.915Z,16.10
2019-06-07T05:52:33.940Z,16.20
2019-06-07T05:55:07.484Z,16.20
2019-06-07T05:57:45.338Z,16.30
2019-06-07T06:00:17.736Z,16.30
2019-06-07T06:03:04.734Z,16.40
2019-06-07T06:05:34.330Z,16.50
2019-06-07T06:08:03.475Z,16.50
2019-06-07T06:10:37.672Z,16.70
2019-06-07T06:13:14.374Z,16.60
2019-06-07T06:16:00.660Z,16.90
2019-06-07T06:18:24.999Z,16.90
2019-06-07T06:21:16.212Z,16.90
2019-06-07T06:23:42.685Z,16.90
2019-06-07T06:26:15.809Z,16.90
2019-06-07T06:28:49.635Z,17.00
2019-06-07T06:31:22.953Z,17.10
2019-06-07T06:33:55.813Z,17.50
2019-06-07T06:36:32.105Z,18.10
2019-06-07T06:39:06.478Z,18.40
2019-06-07T06:41:52.230Z,18.60
2019-06-07T06:44:15.320Z,19.00
2019-06-07T06:46:57.067Z,19.10
2019-06-07T06:49:23.453Z,19.10
2019-06-07T06:51:56.158Z,19.20
2019-06-07T06:54:40.595Z,19.50
2019-06-07T06:57:19.234Z,19.70
2019-06-07T06:59:40.025Z,19.70
2019-06-07T07:02:12.868Z,19.90
2019-06-07T07:04:53.381Z,20.10
2019-06-07T07:07:24.908Z,20.50
2019-06-07T07:10:00.031Z,20.90
2019-06-07T07:12:34.203Z,21.30
2019-06-07T07:15:07.188Z,21.40
2019-06-07T07:17:53.751Z,21.10
2019-06-07T07:20:14.469Z,20.90
2019-06-07T07:22:53.562Z,21.50
2019-06-07T07:25:23.268Z,21.70
2019-06-07T07:27:56.103Z,21.70
2019-06-07T07:30:37.567Z,22.20
2019-06-07T07:33:09.895Z,22.80
2019-06-07T07:36:09.490Z,22.80
2019-06-07T07:38:19.037Z,22.30
2019-06-07T07:41:04.949Z,22.80
2019-06-07T07:43:26.695Z,22.40
2019-06-07T07:46:25.905Z,23.40
2019-06-07T07:48:37.758Z,23.80
2019-06-07T07:51:10.782Z,23.20
2019-06-07T07:53:52.117Z,23.10
2019-06-07T07:56:18.288Z,23.70
2019-06-07T07:58:57.959Z,23.50
2019-06-07T08:01:25.749Z,23.50
2019-06-07T08:03:58.772Z,22.90
2019-06-07T08:06:32.897Z,22.90
2019-06-07T08:09:07.293Z,23.00
2019-06-07T08:11:39.963Z,23.00
2019-06-07T08:14:12.788Z,23.70
2019-06-07T08:16:51.890Z,24.10
2019-06-07T08:19:24.821Z,23.50
2019-06-07T08:22:00.098Z,23.00
2019-06-07T08:24:32.454Z,23.50
2019-06-07T08:27:25.299Z,23.70
2019-06-07T08:29:45.517Z,23.40
2019-06-07T08:32:19.262Z,23.00
2019-06-07T08:35:02.394Z,23.80
2019-06-07T08:38:14.055Z,24.20
2019-06-07T08:40:07.515Z,23.90
2019-06-07T08:42:59.932Z,24.30
2019-06-07T08:45:16.359Z,24.20
2019-06-07T08:47:53.574Z,24.10
2019-06-07T08:50:23.703Z,24.20
2019-06-07T08:53:03.665Z,24.30
2019-06-07T08:55:31.242Z,24.90
2019-06-07T08:58:08.459Z,24.80
2019-06-07T09:00:47.543Z,25.00
2019-06-07T09:03:13.269Z,24.90
2019-06-07T09:05:47.587Z,24.70
2019-06-07T09:08:29.996Z,25.10
2019-06-07T09:10:59.452Z,25.00
2019-06-07T09:13:33.314Z,25.20
2019-06-07T09:16:08.963Z,25.20
2019-06-07T09:18:44.412Z,25.10
2019-06-07T09:21:16.386Z,25.20
2019-06-07T09:23:49.153Z,25.00
2019-06-07T09:26:25.157Z,25.00
2019-06-07T09:29:00.512Z,25.40
2019-06-07T09:31:51.854Z,25.10
2019-06-07T09:34:14.908Z,25.50
2019-06-07T09:36:47.187Z,25.30
2019-06-07T09:42:26.524Z,25.50
2019-06-07T09:45:08.856Z,25.70
2019-06-07T09:47:39.798Z,25.90
2019-06-07T09:50:12.752Z,26.20
2019-06-07T09:52:58.645Z,26.50
2019-06-07T09:55:24.702Z,26.40
2019-06-07T09:58:06.922Z,25.90
2019-06-07T10:00:41.724Z,26.00
2019-06-07T10:03:22.948Z,26.20
2019-06-07T10:06:03.442Z,26.10
2019-06-07T10:09:57.182Z,26.10
2019-06-07T10:11:14.013Z,26.30
2019-06-07T10:13:46.788Z,26.00
2019-06-07T10:16:24.788Z,25.80
2019-06-07T10:19:05.631Z,26.00
2019-06-07T10:21:42.539Z,25.70
2019-06-07T10:24:16.906Z,26.20
2019-06-07T10:26:50.950Z,26.10
2019-06-07T10:29:23.912Z,26.10
2019-06-07T10:32:02.399Z,26.30
2019-06-07T10:34:35.354Z,26.20
2019-06-07T10:37:11.181Z,26.40
2019-06-07T10:39:49.358Z,26.10
2019-06-07T10:42:26.851Z,26.10
2019-06-07T10:45:06.618Z,26.00
2019-06-07T10:47:45.090Z,26.10
2019-06-07T10:50:17.931Z,26.30
2019-06-07T10:52:57.376Z,26.90
2019-06-07T10:55:34.440Z,26.50
2019-06-07T10:58:09.161Z,27.00
2019-06-07T11:00:50.261Z,26.80
2019-06-07T11:03:29.835Z,26.40
2019-06-07T11:06:03.708Z,26.70
2019-06-07T11:08:40.309Z,26.60
2019-06-07T11:11:17.928Z,25.30
2019-06-07T11:13:52.563Z,25.90
2019-06-07T11:16:26.084Z,26.40
2019-06-07T11:19:02.980Z,26.40
2019-06-07T11:21:36.797Z,26.70
2019-06-07T11:24:10.172Z,26.80
2019-06-07T11:26:44.156Z,27.20
2019-06-07T11:29:17.108Z,26.10
2019-06-07T11:31:49.824Z,26.50
2019-06-07T11:34:23.410Z,27.10
2019-06-07T11:36:57.205Z,27.00
2019-06-07T11:39:30.618Z,26.50
2019-06-07T11:42:05.605Z,26.50
2019-06-07T11:44:53.179Z,26.80
2019-06-07T11:47:19.610Z,27.20
2019-06-07T11:49:53.519Z,27.20
2019-06-07T11:52:33.228Z,27.20
2019-06-07T11:55:08.808Z,27.00
2019-06-07T11:57:43.323Z,26.80
2019-06-07T12:00:18.624Z,26.30
2019-06-07T12:02:55.358Z,26.70
2019-06-07T12:05:29.984Z,26.60
2019-06-07T12:08:02.703Z,27.10
2019-06-07T12:10:42.465Z,27.20
2019-06-07T12:13:10.438Z,26.90
2019-06-07T12:15:48.889Z,27.10
2019-06-07T12:18:20.602Z,26.80
2019-06-07T12:20:57.394Z,27.00
2019-06-07T12:23:31.474Z,26.60
2019-06-07T12:26:14.920Z,26.60
2019-06-07T12:28:49.373Z,27.00
2019-06-07T12:31:22.242Z,27.10
2019-06-07T12:33:55.133Z,26.90
2019-06-07T12:36:27.978Z,26.70
2019-06-07T12:39:00.818Z,26.70
2019-06-07T12:41:34.308Z,26.50
2019-06-07T12:44:08.298Z,26.00
2019-06-07T12:46:49.089Z,25.30
2019-06-07T12:49:23.271Z,25.20
2019-06-07T12:52:02.731Z,24.90
2019-06-07T12:54:41.560Z,25.00
2019-06-07T12:57:17.935Z,25.60
2019-06-07T12:59:51.313Z,26.20
2019-06-07T13:02:25.709Z,26.60
2019-06-07T13:05:04.650Z,26.20
2019-06-07T13:07:43.138Z,26.00
2019-06-07T13:10:23.916Z,26.30
2019-06-07T13:13:02.379Z,26.30
2019-06-07T13:15:35.318Z,26.70
2019-06-07T13:18:17.341Z,27.00
2019-06-07T13:20:55.000Z,27.10
2019-06-07T13:23:25.023Z,26.90
2019-06-07T13:25:57.878Z,27.20
2019-06-07T13:28:34.716Z,27.50
2019-06-07T13:31:14.983Z,27.50
2019-06-07T13:33:47.858Z,27.50
2019-06-07T13:36:20.649Z,27.50
2019-06-07T13:38:53.543Z,27.40
2019-06-07T13:41:36.748Z,27.40
2019-06-07T13:44:00.960Z,26.80
2019-06-07T13:46:33.754Z,26.90
2019-06-07T13:49:11.576Z,26.70
2019-06-07T13:51:53.285Z,27.00
2019-06-07T13:54:31.441Z,27.20
2019-06-07T13:57:05.425Z,27.40
2019-06-07T13:59:45.720Z,27.30
2019-06-07T14:02:23.647Z,26.70
2019-06-07T14:04:57.770Z,26.30
2019-06-07T14:07:33.147Z,26.60
2019-06-07T14:10:12.777Z,26.90
2019-06-07T14:12:45.578Z,27.00
2019-06-07T14:15:26.365Z,27.20
2019-06-07T14:17:59.295Z,27.50
2019-06-07T14:20:36.715Z,27.80
2019-06-07T14:23:15.916Z,27.90
2019-06-07T14:25:59.702Z,27.70
2019-06-07T14:28:35.143Z,27.70
2019-06-07T14:31:09.073Z,27.50
2019-06-07T14:33:47.822Z,27.60
2019-06-07T14:36:20.725Z,27.70
2019-06-07T14:38:53.724Z,27.80
2019-06-07T14:41:27.321Z,27.60
2019-06-07T14:44:01.828Z,27.50
2019-06-07T14:46:34.562Z,27.50
2019-06-07T14:49:12.784Z,27.60
2019-06-07T14:51:45.697Z,27.60
2019-06-07T14:54:20.287Z,27.60
2019-06-07T14:56:53.183Z,27.60
2019-06-07T14:59:34.886Z,27.60
2019-06-07T15:02:08.538Z,27.40
2019-06-07T15:04:41.522Z,27.40
2019-06-07T15:07:24.933Z,27.30
2019-06-07T15:09:59.420Z,27.30
2019-06-07T15:12:33.234Z,27.20
2019-06-07T15:15:06.590Z,27.20
2019-06-07T15:17:43.483Z,27.20
2019-06-07T15:20:16.423Z,27.00
2019-06-07T15:22:49.434Z,27.00
2019-06-07T15:25:24.228Z,26.90
2019-06-07T15:27:57.078Z,26.90
2019-06-07T15:30:29.861Z,26.80
2019-06-07T15:33:02.637Z,26.70
2019-06-07T15:35:37.480Z,26.60
2019-06-07T15:38:10.354Z,26.60
2019-06-07T15:40:43.184Z,26.50
2019-06-07T15:43:15.996Z,26.60
2019-06-07T15:45:51.820Z,26.50
2019-06-07T15:48:24.659Z,26.30
2019-06-07T15:51:01.189Z,26.20
2019-06-07T15:53:39.791Z,26.10
2019-06-07T15:56:12.446Z,26.20
2019-06-07T15:58:45.259Z,26.20
2019-06-07T16:01:20.289Z,26.10
2019-06-07T16:04:01.922Z,26.00
2019-06-07T16:06:36.175Z,25.90
2019-06-07T16:09:14.513Z,25.80
2019-06-07T16:11:48.380Z,25.70
2019-06-07T16:14:21.103Z,25.60
2019-06-07T16:16:53.897Z,25.50
2019-06-07T16:19:26.678Z,25.50
2019-06-07T16:22:04.130Z,25.50
2019-06-07T16:24:45.198Z,25.40
2019-06-07T16:27:23.095Z,25.30
2019-06-07T16:29:56.228Z,25.30
2019-06-07T16:32:31.004Z,25.20
2019-06-07T16:35:04.304Z,25.10
2019-06-07T16:37:50.325Z,24.90
2019-06-07T16:40:23.855Z,24.70
2019-06-07T16:43:16.160Z,24.60
2019-06-07T16:45:36.412Z,24.50
2019-06-07T16:48:20.161Z,24.40
2019-06-07T16:50:55.618Z,24.40
2019-06-07T16:53:28.607Z,24.30
2019-06-07T16:56:01.328Z,24.30
2019-06-07T16:58:34.024Z,24.30
2019-06-07T17:01:06.915Z,24.30
2019-06-07T17:03:41.521Z,24.20
2019-06-07T17:06:22.956Z,24.20
2019-06-07T17:08:56.079Z,24.10
2019-06-07T17:11:29.987Z,24.10
2019-06-07T17:14:08.563Z,23.90
2019-06-07T17:16:43.060Z,23.90
2019-06-07T17:19:19.838Z,23.80
2019-06-07T17:21:52.627Z,23.70
2019-06-07T17:24:26.855Z,23.70
2019-06-07T17:27:00.510Z,23.60
2019-06-07T17:29:33.228Z,23.60
2019-06-07T17:32:08.697Z,23.50
2019-06-07T17:34:42.017Z,23.40
2019-06-07T17:37:19.417Z,23.20
2019-06-07T17:39:54.254Z,23.20
2019-06-07T17:42:35.910Z,23.10
2019-06-07T17:45:11.049Z,23.00
2019-06-07T17:47:43.893Z,22.90
2019-06-07T17:50:16.862Z,22.80
2019-06-07T17:52:50.230Z,22.70
2019-06-07T17:55:31.087Z,22.60
2019-06-07T17:58:03.604Z,22.50
2019-06-07T18:00:36.555Z,22.50
2019-06-07T18:03:09.435Z,22.40
2019-06-07T18:05:43.189Z,22.40
2019-06-07T18:08:18.096Z,22.10
2019-06-07T18:10:52.089Z,22.00
2019-06-07T18:13:25.177Z,22.00
2019-06-07T18:15:59.810Z,22.00
2019-06-07T18:18:32.626Z,21.90
2019-06-07T18:21:05.535Z,21.90
2019-06-07T18:23:40.075Z,21.90
2019-06-07T18:26:12.956Z,21.70
2019-06-07T18:28:48.926Z,21.60
2019-06-07T18:31:21.973Z,21.50
2019-06-07T18:33:55.132Z,21.50
2019-06-07T18:36:32.613Z,21.30
2019-06-07T18:39:09.204Z,21.20
2019-06-07T18:41:42.135Z,21.20
2019-06-07T18:44:21.441Z,21.10
2019-06-07T18:46:50.635Z,21.00
2019-06-07T18:49:26.911Z,20.90
2019-06-07T18:52:13.570Z,20.70
2019-06-07T18:54:46.814Z,20.70
2019-06-07T18:57:20.681Z,20.70
2019-06-07T18:59:56.828Z,20.60
2019-06-07T19:02:29.787Z,20.50
2019-06-07T19:05:02.677Z,20.40
2019-06-07T19:07:35.489Z,20.30
2019-06-07T19:10:08.325Z,20.10
2019-06-07T19:12:41.269Z,20.00
2019-06-07T19:15:14.209Z,19.90
2019-06-07T19:17:49.784Z,19.90
2019-06-07T19:20:27.582Z,19.70
2019-06-07T19:23:00.687Z,19.70
2019-06-07T19:25:46.995Z,19.60
2019-06-07T19:28:19.870Z,19.50
2019-06-07T19:31:01.298Z,19.50
2019-06-07T19:33:48.395Z,19.40
2019-06-07T19:36:14.954Z,19.40
2019-06-07T19:38:52.224Z,19.40
2019-06-07T19:41:25.198Z,19.50
2019-06-07T19:43:58.265Z,19.30
2019-06-07T19:46:34.209Z,19.00
2019-06-07T19:49:09.751Z,19.00
2019-06-07T19:51:42.555Z,19.10
2019-06-07T19:54:15.615Z,18.90
2019-06-07T19:56:49.618Z,18.90
2019-06-07T19:59:24.403Z,18.90
2019-06-07T20:01:59.975Z,19.00
2019-06-07T20:04:36.202Z,19.10
2019-06-07T20:07:09.008Z,19.00
2019-06-07T20:09:43.033Z,19.00
2019-06-07T20:12:16.210Z,18.90
2019-06-07T20:14:53.746Z,19.00
2019-06-07T20:17:26.667Z,18.90
2019-06-07T20:20:02.810Z,19.00
2019-06-07T20:22:41.980Z,19.10
2019-06-07T20:25:16.464Z,19.00
2019-06-07T20:27:51.551Z,18.90
2019-06-07T20:30:24.423Z,18.90
2019-06-07T20:32:57.639Z,18.80
2019-06-07T20:35:32.739Z,18.80
2019-06-07T20:38:05.704Z,18.80
2019-06-07T20:40:39.501Z,18.80
2019-06-07T20:43:12.917Z,18.80
2019-06-07T20:45:45.753Z,18.70
2019-06-07T20:48:18.582Z,18.50
2019-06-07T20:50:53.358Z,18.50
2019-06-07T20:53:29.750Z,18.40
2019-06-07T20:56:09.275Z,18.50
2019-06-07T20:58:45.677Z,18.50
2019-06-07T21:01:25.791Z,18.50
2019-06-07T21:04:03.142Z,18.60
2019-06-07T21:06:46.587Z,18.50
2019-06-07T21:09:19.590Z,18.50
2019-06-07T21:12:02.097Z,18.40
2019-06-07T21:14:35.779Z,18.40
2019-06-07T21:17:08.502Z,18.50
2019-06-07T21:19:41.395Z,18.60
2019-06-07T21:22:16.707Z,18.50
2019-06-07T21:24:51.202Z,18.80
2019-06-07T21:27:25.400Z,18.70
2019-06-07T21:30:03.452Z,18.80
2019-06-07T21:32:44.670Z,19.00
2019-06-07T21:35:41.965Z,18.90
2019-06-07T21:38:14.855Z,18.80
2019-06-07T21:40:55.418Z,18.90
2019-06-07T21:43:29.864Z,19.00
2019-06-07T21:46:18.823Z,18.90
2019-06-07T21:48:49.593Z,18.90
2019-06-07T21:51:30.483Z,18.90
2019-06-07T21:54:06.648Z,18.80
2019-06-07T21:56:44.475Z,18.70
2019-06-07T21:59:19.596Z,18.60
2019-06-07T22:02:00.855Z,18.70
2019-06-07T22:04:35.903Z,18.70
2019-06-07T22:07:11.471Z,18.70
2019-06-07T22:09:47.818Z,18.60
2019-06-07T22:12:20.648Z,18.60
2019-06-07T22:14:59.108Z,18.60
2019-06-07T22:17:34.119Z,18.80
2019-06-07T22:20:12.809Z,18.60
2019-06-07T22:22:45.521Z,18.60
2019-06-07T22:25:23.798Z,18.50
2019-06-07T22:27:56.554Z,18.50
2019-06-07T22:30:29.489Z,18.40
2019-06-07T22:33:02.328Z,18.40
2019-06-07T22:35:36.128Z,18.40
2019-06-07T22:38:10.237Z,18.50
2019-06-07T22:40:43.508Z,18.50
2019-06-07T22:43:21.231Z,18.70
2019-06-07T22:45:55.979Z,18.70
2019-06-07T22:48:33.650Z,18.80
2019-06-07T22:51:14.604Z,18.70
2019-06-07T22:53:54.587Z,18.70
2019-06-07T22:56:44.334Z,18.70
2019-06-07T22:59:20.720Z,18.60
2019-06-07T23:01:58.032Z,18.60
2019-06-07T23:04:31.024Z,18.50
2019-06-07T23:07:04.604Z,18.40
2019-06-07T23:09:37.444Z,18.40
2019-06-07T23:12:11.120Z,18.10
2019-06-07T23:14:45.453Z,18.10
2019-06-07T23:17:18.559Z,18.00
2019-06-07T23:19:52.868Z,17.90
2019-06-07T23:22:30.289Z,17.80
2019-06-07T23:25:09.976Z,17.90
2019-06-07T23:27:50.270Z,18.00
2019-06-07T23:30:26.203Z,18.00
2019-06-07T23:33:05.579Z,17.90
2019-06-07T23:35:42.712Z,18.00
2019-06-07T23:38:15.597Z,18.10
2019-06-07T23:40:50.144Z,18.30
2019-06-07T23:43:25.743Z,18.30
2019-06-07T23:45:59.655Z,18.50
2019-06-07T23:48:37.503Z,18.60
2019-06-07T23:51:11.456Z,18.60
2019-06-07T23:53:45.209Z,18.60
2019-06-07T23:56:22.322Z,18.50
2019-06-07T23:58:55.353Z,18.50
